Seven Seas Mariner — C6VV8 — position and weather

sailwx.info

Track history (hours):
 
Tides and Currents Weather Stations Pressure Air Temp Water Temp Dewpoint Dewpoint Depression Visibility Wind Speed Wind Dir Waves Ship Positions

Seven Seas Mariner

Last reported at 2019-Nov-07 23:30 UTC. Time now 2019-Nov-20 09:36 UTC.
Position N 11°15' W 074°22'.
Warning: this ship's position is 12 days out of date.

Length 216 m; draft 7.2 m.

Type: Passenger vessel. MMSI: 311622000.

Date/timePositionNaut miles runAvg speedWind from/ knotsBaromVisibWave heightAir tempDewpointWater temp
2019-Nov-07 23:30N 11°15' W 074°22'611.8
2019-Nov-07 23:00N 11°14' W 074°16'3 1.6
2019-Nov-07 21:28N 11°15' W 074°13'0 0.0
2019-Nov-07 14:16N 11°15' W 074°13'2 0.7
2019-Nov-07 11:57N 11°16' W 074°15'  
2019-Nov-02 00:18N 25°25' W 079°53'517.7
2019-Nov-02 00:00N 25°30' W 079°55'917.7
2019-Nov-01 23:30N 25°38' W 079°59'917.2
2019-Nov-01 23:00N 25°45' W 080°04'510.6
2019-Nov-01 22:31N 25°46' W 080°09'1 2.3
2019-Nov-01 22:00N 25°47' W 080°10'0 0.0
2019-Nov-01 21:30N 25°47' W 080°10'0 0.0
2019-Nov-01 21:00N 25°47' W 080°10'0 0.0
2019-Nov-01 20:30N 25°47' W 080°10'0 0.0
2019-Nov-01 20:00N 25°47' W 080°10'0 0.0
2019-Nov-01 19:30N 25°47' W 080°10'0 0.0
2019-Nov-01 19:00N 25°47' W 080°10'0 0.0
2019-Nov-01 18:30N 25°47' W 080°10'0 0.0
2019-Nov-01 18:00N 25°47' W 080°10'0 0.0
2019-Nov-01 17:30N 25°47' W 080°10'0 0.0
2019-Nov-01 17:00N 25°47' W 080°10'0 0.0
2019-Nov-01 16:30N 25°47' W 080°10'0 0.0
2019-Nov-01 16:00N 25°47' W 080°10'0 0.0
2019-Nov-01 15:30N 25°47' W 080°10'0 0.0
2019-Nov-01 15:00N 25°47' W 080°10'0 0.0
2019-Nov-01 14:30N 25°47' W 080°10'0 0.0
2019-Nov-01 14:00N 25°47' W 080°10'0 0.0
2019-Nov-01 13:30N 25°47' W 080°10'0 0.0
2019-Nov-01 13:00N 25°47' W 080°10'0 0.0
2019-Nov-01 12:30N 25°47' W 080°10'0 0.0
2019-Nov-01 12:00N 25°47' W 080°10'0 0.0
2019-Nov-01 11:30N 25°47' W 080°10'0 0.0
2019-Nov-01 11:00N 25°47' W 080°10'0 0.0
2019-Nov-01 10:30N 25°47' W 080°11'1 1.5
2019-Nov-01 10:00N 25°47' W 080°10'510.6
2019-Nov-01 09:30N 25°46' W 080°04'5 9.3
2019-Nov-01 09:00N 25°46' W 079°59'5 9.8
2019-Nov-01 08:30N 25°41' W 079°57'612.9
2019-Nov-01 08:00N 25°35' W 079°56'714.6
2019-Nov-01 07:30N 25°28' W 079°54'814.6
2019-Nov-01 06:59N 25°20' W 079°53'  
2019-Oct-30 01:30N 18°43' W 065°48'918.8
2019-Oct-30 01:00N 18°41' W 065°39'919.0
2019-Oct-30 00:30N 18°38' W 065°29'1019.1
2019-Oct-30 00:00N 18°35' W 065°19'1019.2
2019-Oct-29 23:30N 18°32' W 065°10'918.8
2019-Oct-29 23:00N 18°29' W 065°00'918.5
2019-Oct-29 22:30N 18°24' W 064°52'  
Track history (hours):
 
Tides and Currents Weather Stations Pressure Air Temp Water Temp Dewpoint Dewpoint Depression Visibility Wind Speed Wind Dir Waves Ship Positions

Seven Seas Mariner

Last reported at 2019-Nov-07 23:30 UTC. Time now 2019-Nov-20 09:36 UTC.
Position N 11°15' W 074°22'.
Warning: this ship's position is 12 days out of date.

Length 216 m; draft 7.2 m.

Type: Passenger vessel. MMSI: 311622000.

Date/timePositionNaut miles runAvg speedWind from/ knotsBaromVisibWave heightAir tempDewpointWater temp
2019-Nov-07 23:30N 11°15' W 074°22'611.8
2019-Nov-07 23:00N 11°14' W 074°16'3 1.6
2019-Nov-07 21:28N 11°15' W 074°13'0 0.0
2019-Nov-07 14:16N 11°15' W 074°13'2 0.7
2019-Nov-07 11:57N 11°16' W 074°15'  
2019-Nov-02 00:18N 25°25' W 079°53'517.7
2019-Nov-02 00:00N 25°30' W 079°55'917.7
2019-Nov-01 23:30N 25°38' W 079°59'917.2
2019-Nov-01 23:00N 25°45' W 080°04'510.6
2019-Nov-01 22:31N 25°46' W 080°09'1 2.3
2019-Nov-01 22:00N 25°47' W 080°10'0 0.0
2019-Nov-01 21:30N 25°47' W 080°10'0 0.0
2019-Nov-01 21:00N 25°47' W 080°10'0 0.0
2019-Nov-01 20:30N 25°47' W 080°10'0 0.0
2019-Nov-01 20:00N 25°47' W 080°10'0 0.0
2019-Nov-01 19:30N 25°47' W 080°10'0 0.0
2019-Nov-01 19:00N 25°47' W 080°10'0 0.0
2019-Nov-01 18:30N 25°47' W 080°10'0 0.0
2019-Nov-01 18:00N 25°47' W 080°10'0 0.0
2019-Nov-01 17:30N 25°47' W 080°10'0 0.0
2019-Nov-01 17:00N 25°47' W 080°10'0 0.0
2019-Nov-01 16:30N 25°47' W 080°10'0 0.0
2019-Nov-01 16:00N 25°47' W 080°10'0 0.0
2019-Nov-01 15:30N 25°47' W 080°10'0 0.0
2019-Nov-01 15:00N 25°47' W 080°10'0 0.0
2019-Nov-01 14:30N 25°47' W 080°10'0 0.0
2019-Nov-01 14:00N 25°47' W 080°10'0 0.0
2019-Nov-01 13:30N 25°47' W 080°10'0 0.0
2019-Nov-01 13:00N 25°47' W 080°10'0 0.0
2019-Nov-01 12:30N 25°47' W 080°10'0 0.0
2019-Nov-01 12:00N 25°47' W 080°10'0 0.0
2019-Nov-01 11:30N 25°47' W 080°10'0 0.0
2019-Nov-01 11:00N 25°47' W 080°10'0 0.0
2019-Nov-01 10:30N 25°47' W 080°11'1 1.5
2019-Nov-01 10:00N 25°47' W 080°10'510.6
2019-Nov-01 09:30N 25°46' W 080°04'5 9.3
2019-Nov-01 09:00N 25°46' W 079°59'5 9.8
2019-Nov-01 08:30N 25°41' W 079°57'612.9
2019-Nov-01 08:00N 25°35' W 079°56'714.6
2019-Nov-01 07:30N 25°28' W 079°54'814.6
2019-Nov-01 06:59N 25°20' W 079°53'  
2019-Oct-30 01:30N 18°43' W 065°48'918.8
2019-Oct-30 01:00N 18°41' W 065°39'919.0
2019-Oct-30 00:30N 18°38' W 065°29'1019.1
2019-Oct-30 00:00N 18°35' W 065°19'1019.2
2019-Oct-29 23:30N 18°32' W 065°10'918.8
2019-Oct-29 23:00N 18°29' W 065°00'918.5
2019-Oct-29 22:30N 18°24' W 064°52'  

Dump ship's entire track history